sensor_id;sensor_type;location;lat;lon;timestamp;P1;durP1;ratioP1;P2;durP2;ratioP2
84138;SDS011;74250;51.528;6.748;2024-03-17T00:00:40;22.48;;;11.18;;
84138;SDS011;74250;51.528;6.748;2024-03-17T00:03:06;22.45;;;11.48;;
84138;SDS011;74250;51.528;6.748;2024-03-17T00:05:33;24.23;;;15.80;;
84138;SDS011;74250;51.528;6.748;2024-03-17T00:08:00;19.23;;;10.10;;
84138;SDS011;74250;51.528;6.748;2024-03-17T00:10:25;20.77;;;11.35;;
84138;SDS011;74250;51.528;6.748;2024-03-17T00:12:50;23.02;;;10.52;;
84138;SDS011;74250;51.528;6.748;2024-03-17T00:15:16;20.08;;;10.13;;
84138;SDS011;74250;51.528;6.748;2024-03-17T00:17:41;21.90;;;12.48;;
84138;SDS011;74250;51.528;6.748;2024-03-17T00:20:09;18.75;;;10.50;;
84138;SDS011;74250;51.528;6.748;2024-03-17T00:22:43;21.15;;;10.23;;
84138;SDS011;74250;51.528;6.748;2024-03-17T00:25:09;19.58;;;9.98;;
84138;SDS011;74250;51.528;6.748;2024-03-17T00:27:34;20.77;;;11.13;;
84138;SDS011;74250;51.528;6.748;2024-03-17T00:30:05;23.30;;;13.70;;
84138;SDS011;74250;51.528;6.748;2024-03-17T00:32:35;18.65;;;9.85;;
84138;SDS011;74250;51.528;6.748;2024-03-17T00:35:00;18.10;;;10.02;;
84138;SDS011;74250;51.528;6.748;2024-03-17T00:37:26;18.70;;;9.27;;
84138;SDS011;74250;51.528;6.748;2024-03-17T00:39:52;17.85;;;9.02;;
84138;SDS011;74250;51.528;6.748;2024-03-17T00:42:17;17.25;;;8.98;;
84138;SDS011;74250;51.528;6.748;2024-03-17T00:44:43;18.33;;;10.13;;
84138;SDS011;74250;51.528;6.748;2024-03-17T00:47:08;15.77;;;7.97;;
84138;SDS011;74250;51.528;6.748;2024-03-17T00:49:33;20.33;;;9.18;;
84138;SDS011;74250;51.528;6.748;2024-03-17T00:51:59;16.13;;;8.02;;
84138;SDS011;74250;51.528;6.748;2024-03-17T00:54:24;16.70;;;7.45;;
84138;SDS011;74250;51.528;6.748;2024-03-17T00:56:50;14.05;;;6.95;;
84138;SDS011;74250;51.528;6.748;2024-03-17T00:59:16;14.13;;;7.45;;
84138;SDS011;74250;51.528;6.748;2024-03-17T01:01:41;12.45;;;6.10;;
84138;SDS011;74250;51.528;6.748;2024-03-17T01:04:08;11.88;;;8.85;;
84138;SDS011;74250;51.528;6.748;2024-03-17T01:06:34;14.27;;;8.20;;
84138;SDS011;74250;51.528;6.748;2024-03-17T01:08:59;15.27;;;8.98;;
84138;SDS011;74250;51.528;6.748;2024-03-17T01:11:24;17.70;;;8.75;;
84138;SDS011;74250;51.528;6.748;2024-03-17T01:13:50;12.25;;;6.72;;
84138;SDS011;74250;51.528;6.748;2024-03-17T01:16:15;16.08;;;9.35;;
84138;SDS011;74250;51.528;6.748;2024-03-17T01:18:41;14.38;;;6.93;;
84138;SDS011;74250;51.528;6.748;2024-03-17T01:21:08;14.90;;;7.47;;
84138;SDS011;74250;51.528;6.748;2024-03-17T01:23:33;12.77;;;6.95;;
84138;SDS011;74250;51.528;6.748;2024-03-17T01:25:58;13.05;;;7.18;;
84138;SDS011;74250;51.528;6.748;2024-03-17T01:28:24;13.63;;;6.55;;
84138;SDS011;74250;51.528;6.748;2024-03-17T01:30:49;14.10;;;7.10;;
84138;SDS011;74250;51.528;6.748;2024-03-17T01:33:14;14.70;;;6.95;;
84138;SDS011;74250;51.528;6.748;2024-03-17T01:35:40;12.00;;;6.15;;
84138;SDS011;74250;51.528;6.748;2024-03-17T01:38:06;12.13;;;6.03;;
84138;SDS011;74250;51.528;6.748;2024-03-17T01:40:31;14.63;;;6.50;;
84138;SDS011;74250;51.528;6.748;2024-03-17T01:42:56;12.95;;;10.20;;
84138;SDS011;74250;51.528;6.748;2024-03-17T01:47:54;12.95;;;6.40;;
84138;SDS011;74250;51.528;6.748;2024-03-17T01:50:23;10.48;;;5.22;;
84138;SDS011;74250;51.528;6.748;2024-03-17T01:52:50;12.60;;;6.20;;
84138;SDS011;74250;51.528;6.748;2024-03-17T01:55:17;11.13;;;5.30;;
84138;SDS011;74250;51.528;6.748;2024-03-17T01:57:42;9.00;;;5.13;;
84138;SDS011;74250;51.528;6.748;2024-03-17T02:00:07;10.43;;;4.85;;
84138;SDS011;74250;51.528;6.748;2024-03-17T02:02:34;11.60;;;5.72;;
84138;SDS011;74250;51.528;6.748;2024-03-17T02:05:00;14.60;;;7.10;;
84138;SDS011;74250;51.528;6.748;2024-03-17T02:07:26;11.18;;;6.38;;
84138;SDS011;74250;51.528;6.748;2024-03-17T02:09:51;9.85;;;5.00;;
84138;SDS011;74250;51.528;6.748;2024-03-17T02:12:16;9.20;;;4.88;;
84138;SDS011;74250;51.528;6.748;2024-03-17T02:14:42;8.98;;;4.78;;
84138;SDS011;74250;51.528;6.748;2024-03-17T02:17:07;7.80;;;3.95;;
84138;SDS011;74250;51.528;6.748;2024-03-17T02:19:33;7.40;;;4.10;;
84138;SDS011;74250;51.528;6.748;2024-03-17T02:21:59;8.88;;;5.75;;
84138;SDS011;74250;51.528;6.748;2024-03-17T02:24:25;9.82;;;4.78;;
84138;SDS011;74250;51.528;6.748;2024-03-17T02:26:50;8.88;;;4.32;;
84138;SDS011;74250;51.528;6.748;2024-03-17T02:29:15;11.18;;;6.53;;
84138;SDS011;74250;51.528;6.748;2024-03-17T02:31:41;11.35;;;5.15;;
84138;SDS011;74250;51.528;6.748;2024-03-17T02:34:06;9.40;;;4.93;;
84138;SDS011;74250;51.528;6.748;2024-03-17T02:36:31;11.45;;;5.43;;
84138;SDS011;74250;51.528;6.748;2024-03-17T02:38:56;11.38;;;7.05;;
84138;SDS011;74250;51.528;6.748;2024-03-17T02:41:44;15.50;;;5.88;;
84138;SDS011;74250;51.528;6.748;2024-03-17T02:44:10;13.23;;;7.28;;
84138;SDS011;74250;51.528;6.748;2024-03-17T02:46:36;10.60;;;5.22;;
84138;SDS011;74250;51.528;6.748;2024-03-17T02:49:01;10.30;;;5.75;;
84138;SDS011;74250;51.528;6.748;2024-03-17T02:51:27;11.18;;;4.95;;
84138;SDS011;74250;51.528;6.748;2024-03-17T02:53:52;9.35;;;5.00;;
84138;SDS011;74250;51.528;6.748;2024-03-17T02:56:17;8.43;;;4.95;;
84138;SDS011;74250;51.528;6.748;2024-03-17T02:58:44;8.95;;;5.45;;
84138;SDS011;74250;51.528;6.748;2024-03-17T03:01:11;9.30;;;5.25;;
84138;SDS011;74250;51.528;6.748;2024-03-17T03:03:37;11.30;;;4.78;;
84138;SDS011;74250;51.528;6.748;2024-03-17T03:06:03;7.60;;;4.68;;
84138;SDS011;74250;51.528;6.748;2024-03-17T03:08:32;8.43;;;4.13;;
84138;SDS011;74250;51.528;6.748;2024-03-17T03:10:59;8.65;;;4.65;;
84138;SDS011;74250;51.528;6.748;2024-03-17T03:13:24;10.02;;;5.05;;
84138;SDS011;74250;51.528;6.748;2024-03-17T03:15:49;10.68;;;4.60;;
84138;SDS011;74250;51.528;6.748;2024-03-17T03:18:15;12.73;;;5.38;;
84138;SDS011;74250;51.528;6.748;2024-03-17T03:20:40;8.63;;;4.50;;
84138;SDS011;74250;51.528;6.748;2024-03-17T03:23:06;10.77;;;5.03;;
84138;SDS011;74250;51.528;6.748;2024-03-17T03:25:31;10.50;;;5.05;;
84138;SDS011;74250;51.528;6.748;2024-03-17T03:27:57;10.68;;;7.72;;
84138;SDS011;74250;51.528;6.748;2024-03-17T03:30:23;8.13;;;4.60;;
84138;SDS011;74250;51.528;6.748;2024-03-17T03:32:48;8.15;;;5.18;;
84138;SDS011;74250;51.528;6.748;2024-03-17T03:35:14;7.93;;;4.60;;
84138;SDS011;74250;51.528;6.748;2024-03-17T03:37:40;10.30;;;4.57;;
84138;SDS011;74250;51.528;6.748;2024-03-17T03:40:06;9.60;;;4.22;;
84138;SDS011;74250;51.528;6.748;2024-03-17T03:42:42;9.45;;;5.07;;
84138;SDS011;74250;51.528;6.748;2024-03-17T03:45:08;7.35;;;4.70;;
84138;SDS011;74250;51.528;6.748;2024-03-17T03:47:43;9.02;;;5.53;;
84138;SDS011;74250;51.528;6.748;2024-03-17T03:50:09;9.40;;;6.28;;
84138;SDS011;74250;51.528;6.748;2024-03-17T03:52:39;8.25;;;6.40;;
84138;SDS011;74250;51.528;6.748;2024-03-17T03:55:08;9.57;;;4.32;;
84138;SDS011;74250;51.528;6.748;2024-03-17T03:57:37;10.57;;;4.78;;
84138;SDS011;74250;51.528;6.748;2024-03-17T04:00:03;9.13;;;4.32;;
84138;SDS011;74250;51.528;6.748;2024-03-17T04:02:37;11.90;;;5.13;;
84138;SDS011;74250;51.528;6.748;2024-03-17T04:05:08;11.07;;;5.75;;
84138;SDS011;74250;51.528;6.748;2024-03-17T04:07:34;10.48;;;4.88;;
84138;SDS011;74250;51.528;6.748;2024-03-17T04:10:01;9.95;;;4.88;;
84138;SDS011;74250;51.528;6.748;2024-03-17T04:12:27;10.02;;;6.05;;
84138;SDS011;74250;51.528;6.748;2024-03-17T04:14:52;10.27;;;4.82;;
84138;SDS011;74250;51.528;6.748;2024-03-17T04:17:19;11.68;;;4.75;;
84138;SDS011;74250;51.528;6.748;2024-03-17T04:19:46;9.20;;;5.25;;
84138;SDS011;74250;51.528;6.748;2024-03-17T04:22:18;9.77;;;5.13;;
84138;SDS011;74250;51.528;6.748;2024-03-17T04:24:45;9.27;;;5.55;;
84138;SDS011;74250;51.528;6.748;2024-03-17T04:27:18;9.35;;;5.88;;
84138;SDS011;74250;51.528;6.748;2024-03-17T04:29:46;10.60;;;4.85;;
84138;SDS011;74250;51.528;6.748;2024-03-17T04:32:13;10.30;;;6.15;;
84138;SDS011;74250;51.528;6.748;2024-03-17T04:34:40;12.82;;;6.15;;
84138;SDS011;74250;51.528;6.748;2024-03-17T04:37:05;12.10;;;6.90;;
84138;SDS011;74250;51.528;6.748;2024-03-17T04:39:31;13.82;;;7.55;;
84138;SDS011;74250;51.528;6.748;2024-03-17T04:41:56;9.68;;;4.65;;
84138;SDS011;74250;51.528;6.748;2024-03-17T04:44:22;12.75;;;5.63;;
84138;SDS011;74250;51.528;6.748;2024-03-17T04:46:47;14.25;;;7.13;;
84138;SDS011;74250;51.528;6.748;2024-03-17T04:49:13;10.43;;;5.47;;
84138;SDS011;74250;51.528;6.748;2024-03-17T04:51:38;12.98;;;5.80;;
84138;SDS011;74250;51.528;6.748;2024-03-17T04:54:04;10.85;;;7.82;;
84138;SDS011;74250;51.528;6.748;2024-03-17T04:56:32;14.98;;;6.47;;
84138;SDS011;74250;51.528;6.748;2024-03-17T04:58:57;12.00;;;5.80;;
84138;SDS011;74250;51.528;6.748;2024-03-17T05:01:23;13.90;;;7.22;;
84138;SDS011;74250;51.528;6.748;2024-03-17T05:03:51;12.85;;;7.22;;
84138;SDS011;74250;51.528;6.748;2024-03-17T05:06:16;12.32;;;8.00;;
84138;SDS011;74250;51.528;6.748;2024-03-17T05:08:41;12.73;;;9.35;;
84138;SDS011;74250;51.528;6.748;2024-03-17T05:11:07;14.48;;;6.57;;
84138;SDS011;74250;51.528;6.748;2024-03-17T05:13:33;13.02;;;6.97;;
84138;SDS011;74250;51.528;6.748;2024-03-17T05:15:59;16.70;;;7.15;;
84138;SDS011;74250;51.528;6.748;2024-03-17T05:18:25;13.80;;;6.85;;
84138;SDS011;74250;51.528;6.748;2024-03-17T05:20:56;14.15;;;6.18;;
84138;SDS011;74250;51.528;6.748;2024-03-17T05:23:26;14.18;;;7.70;;
84138;SDS011;74250;51.528;6.748;2024-03-17T05:25:53;13.63;;;7.53;;
84138;SDS011;74250;51.528;6.748;2024-03-17T05:28:19;18.15;;;6.22;;
84138;SDS011;74250;51.528;6.748;2024-03-17T05:30:44;15.15;;;6.90;;
84138;SDS011;74250;51.528;6.748;2024-03-17T05:33:11;16.27;;;7.10;;
84138;SDS011;74250;51.528;6.748;2024-03-17T05:35:36;16.17;;;7.85;;
84138;SDS011;74250;51.528;6.748;2024-03-17T05:38:03;16.13;;;8.43;;
84138;SDS011;74250;51.528;6.748;2024-03-17T05:40:28;13.65;;;7.05;;
84138;SDS011;74250;51.528;6.748;2024-03-17T05:42:55;10.75;;;5.15;;
84138;SDS011;74250;51.528;6.748;2024-03-17T05:45:21;12.73;;;6.18;;
84138;SDS011;74250;51.528;6.748;2024-03-17T05:47:49;12.55;;;9.40;;
84138;SDS011;74250;51.528;6.748;2024-03-17T05:50:15;11.30;;;5.60;;
84138;SDS011;74250;51.528;6.748;2024-03-17T05:52:40;10.75;;;6.25;;
84138;SDS011;74250;51.528;6.748;2024-03-17T05:55:06;13.98;;;6.60;;
84138;SDS011;74250;51.528;6.748;2024-03-17T05:57:33;13.88;;;6.25;;
84138;SDS011;74250;51.528;6.748;2024-03-17T05:59:58;13.40;;;6.35;;
84138;SDS011;74250;51.528;6.748;2024-03-17T06:02:23;13.25;;;6.63;;
84138;SDS011;74250;51.528;6.748;2024-03-17T06:04:49;10.77;;;5.80;;
84138;SDS011;74250;51.528;6.748;2024-03-17T06:07:15;11.77;;;6.60;;
84138;SDS011;74250;51.528;6.748;2024-03-17T06:09:41;13.15;;;6.43;;
84138;SDS011;74250;51.528;6.748;2024-03-17T06:12:06;12.43;;;7.32;;
84138;SDS011;74250;51.528;6.748;2024-03-17T06:14:32;11.93;;;7.43;;
84138;SDS011;74250;51.528;6.748;2024-03-17T06:16:59;13.90;;;7.03;;
84138;SDS011;74250;51.528;6.748;2024-03-17T06:19:24;14.50;;;7.07;;
84138;SDS011;74250;51.528;6.748;2024-03-17T06:21:50;13.15;;;6.70;;
84138;SDS011;74250;51.528;6.748;2024-03-17T06:24:16;15.65;;;6.78;;
84138;SDS011;74250;51.528;6.748;2024-03-17T06:26:43;12.45;;;7.30;;
84138;SDS011;74250;51.528;6.748;2024-03-17T06:29:08;13.25;;;6.10;;
84138;SDS011;74250;51.528;6.748;2024-03-17T06:31:33;13.75;;;6.72;;
84138;SDS011;74250;51.528;6.748;2024-03-17T06:33:59;10.60;;;5.82;;
84138;SDS011;74250;51.528;6.748;2024-03-17T06:36:24;12.98;;;5.10;;
84138;SDS011;74250;51.528;6.748;2024-03-17T06:38:50;10.00;;;5.22;;
84138;SDS011;74250;51.528;6.748;2024-03-17T06:41:16;8.90;;;6.00;;
84138;SDS011;74250;51.528;6.748;2024-03-17T06:43:41;9.02;;;5.22;;
84138;SDS011;74250;51.528;6.748;2024-03-17T06:46:08;10.82;;;4.97;;
84138;SDS011;74250;51.528;6.748;2024-03-17T06:48:34;9.68;;;5.18;;
84138;SDS011;74250;51.528;6.748;2024-03-17T06:51:00;8.35;;;4.82;;
84138;SDS011;74250;51.528;6.748;2024-03-17T06:53:25;8.30;;;4.25;;
84138;SDS011;74250;51.528;6.748;2024-03-17T06:55:58;7.25;;;3.97;;
84138;SDS011;74250;51.528;6.748;2024-03-17T06:58:25;7.97;;;3.53;;
84138;SDS011;74250;51.528;6.748;2024-03-17T07:00:56;6.30;;;4.00;;
84138;SDS011;74250;51.528;6.748;2024-03-17T07:03:24;6.50;;;3.53;;
84138;SDS011;74250;51.528;6.748;2024-03-17T07:05:51;7.55;;;3.45;;
84138;SDS011;74250;51.528;6.748;2024-03-17T07:08:22;6.15;;;3.00;;
84138;SDS011;74250;51.528;6.748;2024-03-17T07:10:58;5.28;;;2.88;;
84138;SDS011;74250;51.528;6.748;2024-03-17T07:13:24;7.28;;;2.95;;
84138;SDS011;74250;51.528;6.748;2024-03-17T07:15:51;7.05;;;4.90;;
84138;SDS011;74250;51.528;6.748;2024-03-17T07:18:24;6.15;;;2.85;;
84138;SDS011;74250;51.528;6.748;2024-03-17T07:21:30;6.22;;;2.38;;
84138;SDS011;74250;51.528;6.748;2024-03-17T07:24:00;6.32;;;3.33;;
84138;SDS011;74250;51.528;6.748;2024-03-17T07:26:29;4.85;;;3.55;;
84138;SDS011;74250;51.528;6.748;2024-03-17T07:28:58;4.97;;;2.58;;
84138;SDS011;74250;51.528;6.748;2024-03-17T07:31:23;5.32;;;2.58;;
84138;SDS011;74250;51.528;6.748;2024-03-17T07:33:48;6.65;;;3.20;;
84138;SDS011;74250;51.528;6.748;2024-03-17T07:36:14;5.03;;;2.80;;
84138;SDS011;74250;51.528;6.748;2024-03-17T07:38:39;6.05;;;2.50;;
84138;SDS011;74250;51.528;6.748;2024-03-17T07:41:06;4.55;;;2.38;;
84138;SDS011;74250;51.528;6.748;2024-03-17T07:43:34;6.45;;;2.55;;
84138;SDS011;74250;51.528;6.748;2024-03-17T07:46:01;4.32;;;2.75;;
84138;SDS011;74250;51.528;6.748;2024-03-17T07:48:31;3.97;;;2.10;;
84138;SDS011;74250;51.528;6.748;2024-03-17T07:50:59;3.38;;;1.63;;
84138;SDS011;74250;51.528;6.748;2024-03-17T07:58:24;4.28;;;1.88;;
84138;SDS011;74250;51.528;6.748;2024-03-17T08:00:51;5.65;;;1.77;;
84138;SDS011;74250;51.528;6.748;2024-03-17T08:03:19;3.67;;;2.13;;
84138;SDS011;74250;51.528;6.748;2024-03-17T08:05:49;4.28;;;2.42;;
84138;SDS011;74250;51.528;6.748;2024-03-17T08:08:15;3.50;;;1.60;;
84138;SDS011;74250;51.528;6.748;2024-03-17T08:10:41;4.85;;;2.17;;
84138;SDS011;74250;51.528;6.748;2024-03-17T08:13:06;3.92;;;1.98;;
84138;SDS011;74250;51.528;6.748;2024-03-17T08:15:34;6.07;;;2.28;;
84138;SDS011;74250;51.528;6.748;2024-03-17T08:17:59;4.05;;;2.50;;
84138;SDS011;74250;51.528;6.748;2024-03-17T08:20:24;3.47;;;1.58;;
84138;SDS011;74250;51.528;6.748;2024-03-17T08:22:50;3.60;;;1.80;;
84138;SDS011;74250;51.528;6.748;2024-03-17T08:25:15;5.00;;;2.17;;
84138;SDS011;74250;51.528;6.748;2024-03-17T08:27:41;5.13;;;2.35;;
84138;SDS011;74250;51.528;6.748;2024-03-17T08:30:08;4.82;;;1.77;;
84138;SDS011;74250;51.528;6.748;2024-03-17T08:32:35;6.60;;;2.03;;
84138;SDS011;74250;51.528;6.748;2024-03-17T08:35:00;4.35;;;1.73;;
84138;SDS011;74250;51.528;6.748;2024-03-17T08:37:25;5.35;;;2.03;;
84138;SDS011;74250;51.528;6.748;2024-03-17T08:39:51;5.38;;;2.42;;
84138;SDS011;74250;51.528;6.748;2024-03-17T08:42:18;4.47;;;1.65;;
84138;SDS011;74250;51.528;6.748;2024-03-17T08:44:47;4.85;;;1.88;;
84138;SDS011;74250;51.528;6.748;2024-03-17T08:47:12;6.07;;;2.20;;
84138;SDS011;74250;51.528;6.748;2024-03-17T08:49:37;4.40;;;1.77;;
84138;SDS011;74250;51.528;6.748;2024-03-17T08:52:03;4.45;;;2.08;;
84138;SDS011;74250;51.528;6.748;2024-03-17T08:54:32;3.72;;;1.95;;
84138;SDS011;74250;51.528;6.748;2024-03-17T08:56:58;5.15;;;1.83;;
84138;SDS011;74250;51.528;6.748;2024-03-17T08:59:24;3.63;;;1.70;;
84138;SDS011;74250;51.528;6.748;2024-03-17T09:01:50;5.20;;;1.60;;
84138;SDS011;74250;51.528;6.748;2024-03-17T09:04:15;3.75;;;1.70;;
84138;SDS011;74250;51.528;6.748;2024-03-17T09:06:42;4.28;;;2.03;;
84138;SDS011;74250;51.528;6.748;2024-03-17T09:09:07;6.13;;;2.42;;
84138;SDS011;74250;51.528;6.748;2024-03-17T09:11:33;3.47;;;2.33;;
84138;SDS011;74250;51.528;6.748;2024-03-17T09:13:58;3.97;;;1.55;;
84138;SDS011;74250;51.528;6.748;2024-03-17T09:16:24;3.40;;;1.35;;
84138;SDS011;74250;51.528;6.748;2024-03-17T09:18:50;3.15;;;1.88;;
84138;SDS011;74250;51.528;6.748;2024-03-17T09:21:16;3.63;;;1.35;;
84138;SDS011;74250;51.528;6.748;2024-03-17T09:26:52;4.90;;;1.85;;
84138;SDS011;74250;51.528;6.748;2024-03-17T09:29:18;2.35;;;0.95;;
84138;SDS011;74250;51.528;6.748;2024-03-17T09:31:43;3.22;;;1.55;;
84138;SDS011;74250;51.528;6.748;2024-03-17T09:34:08;2.88;;;1.90;;
84138;SDS011;74250;51.528;6.748;2024-03-17T09:36:34;3.30;;;1.38;;
84138;SDS011;74250;51.528;6.748;2024-03-17T09:39:00;5.20;;;1.08;;
84138;SDS011;74250;51.528;6.748;2024-03-17T09:41:29;3.38;;;1.65;;
84138;SDS011;74250;51.528;6.748;2024-03-17T09:43:55;2.95;;;1.70;;
84138;SDS011;74250;51.528;6.748;2024-03-17T09:46:24;5.78;;;1.20;;
84138;SDS011;74250;51.528;6.748;2024-03-17T09:49:15;3.22;;;1.25;;
84138;SDS011;74250;51.528;6.748;2024-03-17T09:51:41;4.10;;;1.67;;
84138;SDS011;74250;51.528;6.748;2024-03-17T09:54:15;3.42;;;1.33;;
84138;SDS011;74250;51.528;6.748;2024-03-17T09:56:44;4.90;;;1.70;;
84138;SDS011;74250;51.528;6.748;2024-03-17T09:59:10;4.03;;;1.05;;
84138;SDS011;74250;51.528;6.748;2024-03-17T10:01:35;3.60;;;1.67;;
84138;SDS011;74250;51.528;6.748;2024-03-17T10:04:02;4.95;;;2.22;;
84138;SDS011;74250;51.528;6.748;2024-03-17T10:06:31;4.45;;;2.67;;
84138;SDS011;74250;51.528;6.748;2024-03-17T10:08:57;3.80;;;1.50;;
84138;SDS011;74250;51.528;6.748;2024-03-17T10:11:24;4.80;;;1.35;;
84138;SDS011;74250;51.528;6.748;2024-03-17T10:16:29;2.67;;;0.93;;
84138;SDS011;74250;51.528;6.748;2024-03-17T10:19:11;3.30;;;1.35;;
84138;SDS011;74250;51.528;6.748;2024-03-17T10:21:41;5.55;;;1.95;;
84138;SDS011;74250;51.528;6.748;2024-03-17T10:26:38;3.60;;;1.50;;
84138;SDS011;74250;51.528;6.748;2024-03-17T10:32:05;3.75;;;1.30;;
84138;SDS011;74250;51.528;6.748;2024-03-17T10:34:38;3.17;;;1.30;;
84138;SDS011;74250;51.528;6.748;2024-03-17T10:39:32;4.95;;;1.70;;
84138;SDS011;74250;51.528;6.748;2024-03-17T10:42:03;4.65;;;1.50;;
84138;SDS011;74250;51.528;6.748;2024-03-17T10:44:34;4.63;;;1.90;;
84138;SDS011;74250;51.528;6.748;2024-03-17T10:47:00;4.32;;;1.38;;
84138;SDS011;74250;51.528;6.748;2024-03-17T10:49:30;5.00;;;1.90;;
84138;SDS011;74250;51.528;6.748;2024-03-17T10:52:00;3.63;;;1.35;;
84138;SDS011;74250;51.528;6.748;2024-03-17T10:54:27;5.25;;;2.08;;
84138;SDS011;74250;51.528;6.748;2024-03-17T10:56:58;5.40;;;1.50;;
84138;SDS011;74250;51.528;6.748;2024-03-17T10:59:40;4.38;;;2.03;;
84138;SDS011;74250;51.528;6.748;2024-03-17T11:02:20;3.53;;;1.20;;
84138;SDS011;74250;51.528;6.748;2024-03-17T11:04:49;3.42;;;1.75;;
84138;SDS011;74250;51.528;6.748;2024-03-17T11:07:16;4.15;;;1.77;;
84138;SDS011;74250;51.528;6.748;2024-03-17T11:09:44;5.95;;;2.22;;
84138;SDS011;74250;51.528;6.748;2024-03-17T11:12:37;4.82;;;1.50;;
84138;SDS011;74250;51.528;6.748;2024-03-17T11:20:32;4.90;;;3.33;;
84138;SDS011;74250;51.528;6.748;2024-03-17T11:22:58;4.00;;;1.70;;
84138;SDS011;74250;51.528;6.748;2024-03-17T11:27:53;3.50;;;1.35;;
84138;SDS011;74250;51.528;6.748;2024-03-17T11:46:43;5.03;;;2.63;;
84138;SDS011;74250;51.528;6.748;2024-03-17T11:51:58;3.70;;;2.25;;
84138;SDS011;74250;51.528;6.748;2024-03-17T11:54:32;5.78;;;1.90;;
84138;SDS011;74250;51.528;6.748;2024-03-17T11:57:08;4.72;;;2.45;;
84138;SDS011;74250;51.528;6.748;2024-03-17T11:59:35;3.55;;;1.60;;
84138;SDS011;74250;51.528;6.748;2024-03-17T12:02:02;5.07;;;2.13;;
84138;SDS011;74250;51.528;6.748;2024-03-17T12:04:38;7.90;;;2.60;;
84138;SDS011;74250;51.528;6.748;2024-03-17T12:07:04;3.70;;;1.88;;
84138;SDS011;74250;51.528;6.748;2024-03-17T12:09:36;4.18;;;2.38;;
84138;SDS011;74250;51.528;6.748;2024-03-17T12:12:23;5.63;;;4.25;;
84138;SDS011;74250;51.528;6.748;2024-03-17T12:14:49;5.55;;;4.00;;
84138;SDS011;74250;51.528;6.748;2024-03-17T12:17:20;4.10;;;2.05;;
84138;SDS011;74250;51.528;6.748;2024-03-17T12:19:46;5.53;;;2.58;;
84138;SDS011;74250;51.528;6.748;2024-03-17T12:22:20;3.75;;;2.00;;
84138;SDS011;74250;51.528;6.748;2024-03-17T12:24:50;3.33;;;2.40;;
84138;SDS011;74250;51.528;6.748;2024-03-17T12:27:23;3.95;;;2.20;;
84138;SDS011;74250;51.528;6.748;2024-03-17T12:29:50;4.25;;;2.03;;
84138;SDS011;74250;51.528;6.748;2024-03-17T12:32:17;4.80;;;3.15;;
84138;SDS011;74250;51.528;6.748;2024-03-17T12:34:45;4.35;;;1.73;;
84138;SDS011;74250;51.528;6.748;2024-03-17T12:37:16;4.68;;;2.00;;
84138;SDS011;74250;51.528;6.748;2024-03-17T12:39:43;4.82;;;2.75;;
84138;SDS011;74250;51.528;6.748;2024-03-17T12:44:52;5.78;;;3.28;;
84138;SDS011;74250;51.528;6.748;2024-03-17T12:47:19;3.78;;;1.95;;
84138;SDS011;74250;51.528;6.748;2024-03-17T12:49:46;5.75;;;2.90;;
84138;SDS011;74250;51.528;6.748;2024-03-17T12:52:18;7.65;;;2.67;;
84138;SDS011;74250;51.528;6.748;2024-03-17T12:57:44;7.20;;;2.42;;
84138;SDS011;74250;51.528;6.748;2024-03-17T13:00:29;5.22;;;2.28;;
84138;SDS011;74250;51.528;6.748;2024-03-17T13:03:01;6.20;;;2.30;;
84138;SDS011;74250;51.528;6.748;2024-03-17T13:05:28;4.93;;;2.00;;
84138;SDS011;74250;51.528;6.748;2024-03-17T13:07:54;6.50;;;2.45;;
84138;SDS011;74250;51.528;6.748;2024-03-17T13:10:21;4.45;;;1.52;;
84138;SDS011;74250;51.528;6.748;2024-03-17T13:12:47;6.30;;;2.30;;
84138;SDS011;74250;51.528;6.748;2024-03-17T13:15:14;4.68;;;2.20;;
84138;SDS011;74250;51.528;6.748;2024-03-17T13:17:41;4.47;;;2.25;;
84138;SDS011;74250;51.528;6.748;2024-03-17T13:20:16;4.50;;;2.55;;
84138;SDS011;74250;51.528;6.748;2024-03-17T13:22:45;8.30;;;2.17;;
84138;SDS011;74250;51.528;6.748;2024-03-17T13:25:17;4.32;;;2.15;;
84138;SDS011;74250;51.528;6.748;2024-03-17T13:27:46;3.85;;;1.70;;
84138;SDS011;74250;51.528;6.748;2024-03-17T13:30:12;5.38;;;4.05;;
84138;SDS011;74250;51.528;6.748;2024-03-17T13:32:39;5.40;;;2.78;;
84138;SDS011;74250;51.528;6.748;2024-03-17T13:35:07;7.50;;;2.60;;
84138;SDS011;74250;51.528;6.748;2024-03-17T13:37:40;3.55;;;2.15;;
84138;SDS011;74250;51.528;6.748;2024-03-17T13:40:05;4.68;;;2.00;;
84138;SDS011;74250;51.528;6.748;2024-03-17T13:42:31;4.50;;;2.53;;
84138;SDS011;74250;51.528;6.748;2024-03-17T13:44:57;3.85;;;1.90;;
84138;SDS011;74250;51.528;6.748;2024-03-17T13:47:22;9.32;;;2.80;;
84138;SDS011;74250;51.528;6.748;2024-03-17T13:49:47;3.15;;;1.67;;
84138;SDS011;74250;51.528;6.748;2024-03-17T13:52:13;3.88;;;2.22;;
84138;SDS011;74250;51.528;6.748;2024-03-17T13:54:38;3.80;;;1.63;;
84138;SDS011;74250;51.528;6.748;2024-03-17T13:57:04;4.78;;;2.05;;
84138;SDS011;74250;51.528;6.748;2024-03-17T13:59:29;4.72;;;2.03;;
84138;SDS011;74250;51.528;6.748;2024-03-17T14:01:55;4.00;;;1.98;;
84138;SDS011;74250;51.528;6.748;2024-03-17T14:04:21;4.75;;;1.85;;
84138;SDS011;74250;51.528;6.748;2024-03-17T14:06:46;3.30;;;1.83;;
84138;SDS011;74250;51.528;6.748;2024-03-17T14:09:14;3.55;;;1.65;;
84138;SDS011;74250;51.528;6.748;2024-03-17T14:11:40;4.68;;;1.38;;
84138;SDS011;74250;51.528;6.748;2024-03-17T14:14:06;3.83;;;2.67;;
84138;SDS011;74250;51.528;6.748;2024-03-17T14:16:31;4.28;;;1.65;;
84138;SDS011;74250;51.528;6.748;2024-03-17T14:21:23;5.75;;;1.92;;
84138;SDS011;74250;51.528;6.748;2024-03-17T14:23:48;3.17;;;1.63;;
84138;SDS011;74250;51.528;6.748;2024-03-17T14:26:13;5.88;;;1.88;;
84138;SDS011;74250;51.528;6.748;2024-03-17T14:28:39;3.47;;;1.77;;
84138;SDS011;74250;51.528;6.748;2024-03-17T14:31:05;4.05;;;1.50;;
84138;SDS011;74250;51.528;6.748;2024-03-17T14:33:31;3.00;;;1.83;;
84138;SDS011;74250;51.528;6.748;2024-03-17T14:35:56;6.18;;;1.48;;
84138;SDS011;74250;51.528;6.748;2024-03-17T14:38:22;3.95;;;2.20;;
84138;SDS011;74250;51.528;6.748;2024-03-17T14:40:52;5.07;;;2.03;;
84138;SDS011;74250;51.528;6.748;2024-03-17T14:43:18;4.53;;;2.03;;
84138;SDS011;74250;51.528;6.748;2024-03-17T14:45:44;8.27;;;1.92;;
84138;SDS011;74250;51.528;6.748;2024-03-17T14:48:10;3.40;;;1.35;;
84138;SDS011;74250;51.528;6.748;2024-03-17T14:50:36;4.78;;;1.70;;
84138;SDS011;74250;51.528;6.748;2024-03-17T14:55:28;4.07;;;3.10;;
84138;SDS011;74250;51.528;6.748;2024-03-17T14:57:53;4.35;;;1.83;;
84138;SDS011;74250;51.528;6.748;2024-03-17T15:00:19;6.45;;;1.65;;
84138;SDS011;74250;51.528;6.748;2024-03-17T15:02:48;4.68;;;1.63;;
84138;SDS011;74250;51.528;6.748;2024-03-17T15:05:16;4.68;;;1.83;;
84138;SDS011;74250;51.528;6.748;2024-03-17T15:07:43;6.50;;;1.55;;
84138;SDS011;74250;51.528;6.748;2024-03-17T15:10:09;5.03;;;2.13;;
84138;SDS011;74250;51.528;6.748;2024-03-17T15:12:35;5.72;;;1.20;;
84138;SDS011;74250;51.528;6.748;2024-03-17T15:15:02;4.97;;;3.38;;
84138;SDS011;74250;51.528;6.748;2024-03-17T15:17:28;3.40;;;1.27;;
84138;SDS011;74250;51.528;6.748;2024-03-17T15:19:54;4.03;;;1.67;;
84138;SDS011;74250;51.528;6.748;2024-03-17T15:22:20;5.00;;;2.00;;
84138;SDS011;74250;51.528;6.748;2024-03-17T15:24:46;4.53;;;1.50;;
84138;SDS011;74250;51.528;6.748;2024-03-17T15:27:12;6.78;;;3.25;;
84138;SDS011;74250;51.528;6.748;2024-03-17T15:29:39;4.63;;;1.85;;
84138;SDS011;74250;51.528;6.748;2024-03-17T15:32:06;5.05;;;2.63;;
84138;SDS011;74250;51.528;6.748;2024-03-17T15:34:31;4.32;;;1.45;;
84138;SDS011;74250;51.528;6.748;2024-03-17T15:36:58;3.72;;;2.03;;
84138;SDS011;74250;51.528;6.748;2024-03-17T15:39:24;3.33;;;1.58;;
84138;SDS011;74250;51.528;6.748;2024-03-17T15:41:50;3.53;;;1.23;;